createdAt,value
2018-04-09T00:01:43.914Z,7.73
2018-04-09T00:04:12.186Z,7.70
2018-04-09T00:06:40.520Z,7.57
2018-04-09T00:09:09.629Z,8.10
2018-04-09T00:11:37.939Z,7.97
2018-04-09T00:14:06.275Z,8.13
2018-04-09T00:16:34.578Z,7.77
2018-04-09T00:19:02.860Z,8.40
2018-04-09T00:21:31.152Z,6.93
2018-04-09T00:24:00.230Z,8.03
2018-04-09T00:26:28.526Z,8.00
2018-04-09T00:28:56.847Z,8.23
2018-04-09T00:31:25.168Z,7.70
2018-04-09T00:33:53.630Z,8.17
2018-04-09T00:36:21.894Z,7.80
2018-04-09T00:38:50.304Z,8.10
2018-04-09T00:41:18.607Z,8.10
2018-04-09T00:43:47.707Z,7.70
2018-04-09T00:46:16.743Z,8.60
2018-04-09T00:48:45.050Z,8.20
2018-04-09T00:51:13.586Z,8.13
2018-04-09T00:53:53.819Z,9.13
2018-04-09T00:56:22.073Z,8.20
2018-04-09T00:58:50.356Z,9.40
2018-04-09T01:01:19.400Z,9.47
2018-04-09T01:03:47.684Z,8.63
2018-04-09T01:06:16.041Z,8.07
2018-04-09T01:08:44.327Z,9.20
2018-04-09T01:11:12.606Z,8.57
2018-04-09T01:13:40.887Z,8.07
2018-04-09T01:16:09.402Z,8.90
2018-04-09T01:18:38.452Z,8.87
2018-04-09T01:21:06.740Z,8.90
2018-04-09T01:23:35.049Z,8.80
2018-04-09T01:26:04.172Z,8.37
2018-04-09T01:28:32.521Z,8.40
2018-04-09T01:31:00.888Z,8.97
2018-04-09T01:33:29.232Z,8.27
2018-04-09T01:35:57.524Z,8.90
2018-04-09T01:38:25.820Z,7.70
2018-04-09T01:40:54.890Z,8.17
2018-04-09T01:43:23.303Z,8.87
2018-04-09T01:45:51.575Z,7.73
2018-04-09T01:48:20.617Z,7.80
2018-04-09T01:50:48.911Z,8.53
2018-04-09T01:53:17.173Z,8.43
2018-04-09T01:55:45.478Z,8.17
2018-04-09T01:58:13.756Z,7.83
2018-04-09T02:00:42.163Z,8.33
2018-04-09T02:03:10.446Z,7.90
2018-04-09T02:05:38.730Z,8.70
2018-04-09T02:08:07.012Z,8.40
2018-04-09T02:10:35.293Z,8.83
2018-04-09T02:13:03.579Z,8.50
2018-04-09T02:15:32.000Z,8.23
2018-04-09T02:18:01.147Z,8.60
2018-04-09T02:20:29.427Z,7.97
2018-04-09T02:22:57.713Z,8.50
2018-04-09T02:25:25.994Z,8.60
2018-04-09T02:27:54.285Z,8.00
2018-04-09T02:30:23.355Z,8.13
2018-04-09T02:32:51.649Z,8.07
2018-04-09T02:35:19.924Z,6.83
2018-04-09T02:37:48.197Z,7.67
2018-04-09T02:40:16.473Z,7.37
2018-04-09T02:42:44.807Z,8.37
2018-04-09T02:45:13.179Z,7.90
2018-04-09T02:47:41.475Z,7.40
2018-04-09T02:50:09.753Z,7.77
2018-04-09T02:52:38.066Z,7.67
2018-04-09T02:55:07.134Z,7.83
2018-04-09T02:57:35.407Z,8.33
2018-04-09T03:00:03.691Z,7.83
2018-04-09T03:02:31.962Z,7.57
2018-04-09T03:05:00.254Z,8.10
2018-04-09T03:07:29.296Z,8.60
2018-04-09T03:09:57.624Z,8.20
2018-04-09T03:12:25.899Z,8.63
2018-04-09T03:14:54.950Z,8.53
2018-04-09T03:17:23.256Z,8.57
2018-04-09T03:19:51.541Z,8.30
2018-04-09T03:22:19.827Z,8.90
2018-04-09T03:24:48.948Z,9.37
2018-04-09T03:27:17.257Z,9.13
2018-04-09T03:29:45.525Z,10.03
2018-04-09T03:32:13.806Z,9.70
2018-04-09T03:34:42.159Z,9.43
2018-04-09T03:37:10.403Z,9.20
2018-04-09T03:39:39.448Z,10.27
2018-04-09T03:42:07.763Z,9.83
2018-04-09T03:44:36.017Z,10.40
2018-04-09T03:47:04.386Z,11.47
2018-04-09T03:49:32.688Z,11.07
2018-04-09T03:52:00.973Z,11.30
2018-04-09T03:54:30.061Z,11.60
2018-04-09T03:56:59.444Z,11.90
2018-04-09T03:59:27.732Z,11.73
2018-04-09T04:01:56.004Z,11.27
2018-04-09T04:04:25.067Z,12.23
2018-04-09T04:06:53.357Z,12.40
2018-04-09T04:09:21.660Z,12.10
2018-04-09T04:11:50.854Z,11.57
2018-04-09T04:14:20.048Z,12.57
2018-04-09T04:17:00.210Z,12.23
2018-04-09T04:19:40.274Z,12.57
2018-04-09T04:22:08.551Z,13.07
2018-04-09T04:24:36.857Z,12.63
2018-04-09T04:27:05.179Z,12.00
2018-04-09T04:29:34.362Z,12.30
2018-04-09T04:32:02.748Z,11.83
2018-04-09T04:34:31.070Z,12.67
2018-04-09T04:36:59.357Z,12.63
2018-04-09T04:39:27.658Z,13.53
2018-04-09T04:41:57.470Z,12.27
2018-04-09T04:44:26.679Z,12.43
2018-04-09T04:46:55.037Z,12.73
2018-04-09T04:49:23.245Z,13.27
2018-04-09T04:51:52.286Z,13.53
2018-04-09T04:54:20.583Z,14.43
2018-04-09T04:56:48.876Z,13.30
2018-04-09T04:59:17.955Z,14.03
2018-04-09T05:01:46.230Z,14.90
2018-04-09T05:04:14.739Z,14.17
2018-04-09T05:06:43.773Z,14.90
2018-04-09T05:09:12.072Z,15.70
2018-04-09T05:11:40.379Z,14.43
2018-04-09T05:14:09.439Z,16.27
2018-04-09T05:16:38.147Z,17.07
2018-04-09T05:19:06.424Z,16.97
2018-04-09T05:21:35.620Z,17.47
2018-04-09T05:24:03.892Z,18.67
2018-04-09T05:26:32.180Z,18.97
2018-04-09T05:29:01.261Z,21.10
2018-04-09T05:31:30.509Z,21.70
2018-04-09T05:33:58.793Z,20.93
2018-04-09T05:36:27.088Z,21.60
2018-04-09T05:38:55.363Z,24.67
2018-04-09T05:41:23.708Z,23.83
2018-04-09T05:43:51.994Z,24.27
2018-04-09T05:46:20.454Z,25.97
2018-04-09T05:48:48.751Z,27.30
2018-04-09T05:51:17.036Z,29.80
2018-04-09T05:53:45.493Z,31.43
2018-04-09T05:56:13.824Z,32.30
2018-04-09T05:58:42.100Z,34.07
2018-04-09T06:01:11.145Z,34.07
2018-04-09T06:03:39.446Z,36.73
2018-04-09T06:06:07.709Z,37.13
2018-04-09T06:08:36.014Z,38.47
2018-04-09T06:13:39.690Z,41.57
2018-04-09T06:16:08.047Z,41.60
2018-04-09T06:18:36.305Z,42.87
2018-04-09T06:21:04.581Z,43.00
2018-04-09T06:23:32.904Z,44.90
2018-04-09T06:26:01.145Z,41.80
2018-04-09T06:28:29.431Z,41.93
2018-04-09T06:30:57.718Z,43.00
2018-04-09T06:33:25.996Z,42.53
2018-04-09T06:35:54.312Z,45.40
2018-04-09T06:38:23.400Z,44.03
2018-04-09T06:40:52.437Z,46.63
2018-04-09T06:43:20.737Z,49.80
2018-04-09T06:45:49.020Z,52.87
2018-04-09T06:48:17.328Z,53.67
2018-04-09T06:50:45.632Z,54.80
2018-04-09T06:53:13.899Z,59.10
2018-04-09T06:55:42.947Z,59.77
2018-04-09T06:58:11.227Z,57.97
2018-04-09T07:00:39.532Z,60.80
2018-04-09T07:03:08.618Z,63.17
2018-04-09T07:05:37.691Z,61.23
2018-04-09T07:08:07.566Z,65.50
2018-04-09T07:10:35.844Z,70.10
2018-04-09T07:13:04.229Z,65.97
2018-04-09T07:15:32.522Z,65.07
2018-04-09T07:18:00.806Z,65.87
2018-04-09T07:20:29.167Z,67.47
2018-04-09T07:22:57.443Z,64.47
2018-04-09T07:25:25.755Z,65.77
2018-04-09T07:27:54.822Z,68.50
2018-04-09T07:30:23.220Z,66.43
2018-04-09T07:32:52.319Z,64.40
2018-04-09T07:35:21.363Z,66.53
2018-04-09T07:37:49.832Z,64.77
2018-04-09T07:40:18.110Z,66.73
2018-04-09T07:42:46.406Z,66.53
2018-04-09T07:45:14.700Z,68.53
2018-04-09T07:47:43.125Z,68.40
2018-04-09T07:50:11.403Z,67.80
2018-04-09T07:52:39.710Z,69.60
2018-04-09T07:55:07.991Z,68.43
2018-04-09T07:57:36.440Z,68.67
2018-04-09T08:00:04.725Z,67.53
2018-04-09T08:02:33.026Z,68.00
2018-04-09T08:05:01.338Z,65.17
2018-04-09T08:07:29.716Z,70.77
2018-04-09T08:09:58.824Z,67.50
2018-04-09T08:12:27.174Z,64.53
2018-04-09T08:14:55.457Z,65.07
2018-04-09T08:17:24.503Z,64.83
2018-04-09T08:19:52.799Z,66.67
2018-04-09T08:22:21.195Z,63.63
2018-04-09T08:24:49.570Z,65.57
2018-04-09T08:27:17.844Z,61.87
2018-04-09T08:29:46.910Z,62.00
2018-04-09T08:32:15.207Z,65.27
2018-04-09T08:34:43.506Z,65.53
2018-04-09T08:37:11.782Z,65.27
2018-04-09T08:39:40.200Z,66.17
2018-04-09T08:42:08.497Z,63.10
2018-04-09T08:44:36.896Z,58.73
2018-04-09T08:47:05.373Z,61.27
2018-04-09T08:49:33.785Z,64.53
2018-04-09T08:52:02.080Z,65.83
2018-04-09T08:54:30.382Z,62.53
2018-04-09T08:56:58.678Z,62.07
2018-04-09T08:59:27.774Z,62.57
2018-04-09T09:01:56.087Z,63.63
2018-04-09T09:04:24.390Z,61.10
2018-04-09T09:06:52.793Z,64.27
2018-04-09T09:09:21.135Z,64.73
2018-04-09T09:11:49.447Z,59.93
2018-04-09T09:14:17.719Z,61.93
2018-04-09T09:16:46.193Z,59.87
2018-04-09T09:19:14.477Z,62.47
2018-04-09T09:21:42.764Z,58.50
2018-04-09T09:24:11.846Z,61.83
2018-04-09T09:26:40.948Z,59.70
2018-04-09T09:29:10.003Z,62.20
2018-04-09T09:31:38.297Z,64.10
2018-04-09T09:34:06.591Z,63.33
2018-04-09T09:36:35.668Z,63.87
2018-04-09T09:39:04.713Z,60.83
2018-04-09T09:41:33.139Z,61.10
2018-04-09T09:44:01.413Z,62.77
2018-04-09T09:46:29.865Z,63.03
2018-04-09T09:48:58.142Z,60.77
2018-04-09T09:51:26.470Z,61.40
2018-04-09T09:53:55.522Z,59.67
2018-04-09T09:56:23.830Z,61.43
2018-04-09T09:58:52.925Z,64.57
2018-04-09T10:01:21.213Z,62.07
2018-04-09T10:03:51.239Z,61.73
2018-04-09T10:06:20.917Z,62.63
2018-04-09T10:08:49.200Z,61.53
2018-04-09T10:11:18.264Z,61.10
2018-04-09T10:13:46.551Z,60.30
2018-04-09T10:16:15.676Z,62.77
2018-04-09T10:18:44.748Z,61.63
2018-04-09T10:21:13.037Z,60.70
2018-04-09T10:23:42.193Z,58.47
2018-04-09T10:26:10.474Z,61.80
2018-04-09T10:28:38.757Z,59.13
2018-04-09T10:31:07.037Z,63.87
2018-04-09T10:33:36.147Z,57.70
2018-04-09T10:36:04.429Z,60.97
2018-04-09T10:38:34.176Z,60.90
2018-04-09T10:41:02.541Z,59.47
2018-04-09T10:43:30.897Z,60.90
2018-04-09T10:45:59.243Z,61.30
2018-04-09T10:48:27.542Z,57.07
2018-04-09T10:50:56.590Z,58.50
2018-04-09T10:53:24.894Z,59.87
2018-04-09T10:55:53.945Z,55.40
2018-04-09T10:58:22.273Z,59.97
2018-04-09T11:00:51.341Z,56.87
2018-04-09T11:03:19.649Z,58.97
2018-04-09T11:05:48.727Z,57.10
2018-04-09T11:08:17.812Z,56.93
2018-04-09T11:10:46.114Z,57.80
2018-04-09T11:13:15.204Z,54.37
2018-04-09T11:15:43.475Z,55.93
2018-04-09T11:18:12.568Z,55.60
2018-04-09T11:20:40.963Z,54.87
2018-04-09T11:23:10.057Z,56.27
2018-04-09T11:25:38.367Z,55.37
2018-04-09T11:28:06.662Z,54.33
2018-04-09T11:30:34.954Z,56.60
2018-04-09T11:33:03.239Z,54.97
2018-04-09T11:35:32.340Z,53.33
2018-04-09T11:38:01.382Z,55.47
2018-04-09T11:40:29.686Z,53.73
2018-04-09T11:42:57.967Z,52.63
2018-04-09T11:45:26.311Z,54.33
2018-04-09T11:47:54.621Z,54.33
2018-04-09T11:50:23.015Z,53.60
2018-04-09T11:52:51.369Z,52.87
2018-04-09T11:55:19.740Z,55.10
2018-04-09T12:00:15.477Z,54.33
2018-04-09T12:02:43.807Z,53.47
2018-04-09T12:05:12.081Z,53.17
2018-04-09T12:07:40.390Z,55.40
2018-04-09T12:10:08.700Z,55.70
2018-04-09T12:12:37.048Z,54.57
2018-04-09T12:15:05.339Z,53.30
2018-04-09T12:17:33.646Z,53.27
2018-04-09T12:20:02.798Z,51.07
2018-04-09T12:22:31.086Z,53.60
2018-04-09T12:25:00.302Z,53.53
2018-04-09T12:27:28.566Z,50.97
2018-04-09T12:29:57.621Z,51.73
2018-04-09T12:32:25.906Z,56.33
2018-04-09T12:34:54.184Z,50.83
2018-04-09T12:37:22.477Z,49.87
2018-04-09T12:39:50.785Z,51.17
2018-04-09T12:42:19.809Z,51.60
2018-04-09T12:44:48.108Z,50.13
2018-04-09T12:47:16.398Z,49.80
2018-04-09T12:49:44.693Z,51.20
2018-04-09T12:52:13.733Z,48.20
2018-04-09T12:54:42.090Z,48.83
2018-04-09T12:57:10.433Z,50.60
2018-04-09T12:59:38.712Z,50.23
2018-04-09T13:02:07.748Z,50.57
2018-04-09T13:04:36.067Z,50.40
2018-04-09T13:07:04.339Z,50.17
2018-04-09T13:09:32.635Z,48.07
2018-04-09T13:12:01.691Z,48.30
2018-04-09T13:14:30.007Z,54.13
2018-04-09T13:16:59.053Z,50.60
2018-04-09T13:19:27.368Z,51.47
2018-04-09T13:21:56.407Z,49.20
2018-04-09T13:24:24.696Z,48.47
2018-04-09T13:26:52.992Z,51.77
2018-04-09T13:29:22.056Z,51.60
2018-04-09T13:31:50.477Z,48.40
2018-04-09T13:34:18.855Z,50.73
2018-04-09T13:36:47.145Z,51.13
2018-04-09T13:39:15.469Z,50.53
2018-04-09T13:41:43.888Z,48.57
2018-04-09T13:44:12.928Z,50.10
2018-04-09T13:46:41.271Z,49.10
2018-04-09T13:49:09.549Z,49.40
2018-04-09T13:51:37.842Z,48.30
2018-04-09T13:54:06.146Z,50.93
2018-04-09T13:56:34.547Z,50.20
2018-04-09T13:59:03.583Z,49.33
2018-04-09T14:01:32.026Z,50.27
2018-04-09T14:04:00.284Z,48.33
2018-04-09T14:06:28.605Z,50.20
2018-04-09T14:08:56.918Z,48.53
2018-04-09T14:11:25.197Z,50.17
2018-04-09T14:13:53.493Z,47.07
2018-04-09T14:16:21.781Z,47.67
2018-04-09T14:18:50.873Z,48.87
2018-04-09T14:21:19.149Z,47.23
2018-04-09T14:23:48.200Z,44.30
2018-04-09T14:26:16.482Z,43.80
2018-04-09T14:28:44.786Z,45.47
2018-04-09T14:31:13.225Z,42.90
2018-04-09T14:33:41.508Z,42.00
2018-04-09T14:36:09.800Z,41.93
2018-04-09T14:38:38.087Z,40.30
2018-04-09T14:41:06.380Z,39.77
2018-04-09T14:43:35.461Z,41.83
2018-04-09T14:46:04.502Z,42.40
2018-04-09T14:48:33.322Z,42.23
2018-04-09T14:51:01.624Z,41.17
2018-04-09T14:53:29.915Z,41.07
2018-04-09T14:55:58.961Z,41.23
2018-04-09T14:58:27.258Z,42.37
2018-04-09T15:00:55.555Z,40.37
2018-04-09T15:03:23.844Z,42.03
2018-04-09T15:05:52.295Z,41.70
2018-04-09T15:08:21.366Z,41.40
2018-04-09T15:10:49.769Z,42.57
2018-04-09T15:13:18.046Z,42.03
2018-04-09T15:15:47.110Z,40.37
2018-04-09T15:18:15.381Z,42.70
2018-04-09T15:20:43.690Z,41.93
2018-04-09T15:23:12.724Z,76.57
2018-04-09T15:25:41.043Z,42.00
2018-04-09T15:28:09.434Z,41.63
2018-04-09T15:30:37.698Z,42.93
2018-04-09T15:33:06.818Z,43.40
2018-04-09T15:35:35.896Z,41.43
2018-04-09T15:38:04.989Z,42.43
2018-04-09T15:40:33.293Z,43.27
2018-04-09T15:43:01.599Z,43.53
2018-04-09T15:45:29.920Z,43.40
2018-04-09T15:47:58.994Z,44.03
2018-04-09T15:50:27.317Z,43.07
2018-04-09T15:52:55.625Z,42.53
2018-04-09T15:55:24.028Z,45.93
2018-04-09T15:57:53.253Z,45.20
2018-04-09T16:00:22.317Z,43.80
2018-04-09T16:02:50.643Z,44.53
2018-04-09T16:05:18.944Z,43.80
2018-04-09T16:07:47.254Z,43.77
2018-04-09T16:10:15.546Z,44.57
2018-04-09T16:12:44.597Z,47.07
2018-04-09T16:15:13.664Z,44.37
2018-04-09T16:17:53.698Z,46.00
2018-04-09T16:20:21.969Z,48.33
2018-04-09T16:22:50.272Z,45.23
2018-04-09T16:25:18.566Z,47.20
2018-04-09T16:27:46.886Z,44.37
2018-04-09T16:30:15.206Z,46.60
2018-04-09T16:32:43.501Z,46.13
2018-04-09T16:35:11.797Z,46.70
2018-04-09T16:37:40.868Z,46.33
2018-04-09T16:40:09.172Z,47.70
2018-04-09T16:42:38.242Z,50.63
2018-04-09T16:45:06.653Z,50.37
2018-04-09T16:47:35.733Z,50.27
2018-04-09T16:50:04.083Z,50.43
2018-04-09T16:52:32.369Z,50.33
2018-04-09T16:55:02.187Z,50.13
2018-04-09T16:57:30.476Z,51.93
2018-04-09T16:59:59.543Z,51.73
2018-04-09T17:02:27.855Z,51.40
2018-04-09T17:04:56.896Z,53.90
2018-04-09T17:07:25.168Z,51.70
2018-04-09T17:09:53.466Z,51.80
2018-04-09T17:12:21.757Z,56.87
2018-04-09T17:14:50.053Z,60.77
2018-04-09T17:17:19.089Z,59.33
2018-04-09T17:19:47.425Z,55.27
2018-04-09T17:22:16.465Z,54.53
2018-04-09T17:24:44.793Z,56.13
2018-04-09T17:27:13.140Z,57.80
2018-04-09T17:29:42.203Z,54.67
2018-04-09T17:32:10.485Z,57.37
2018-04-09T17:34:38.779Z,54.10
2018-04-09T17:37:07.107Z,56.17
2018-04-09T17:39:35.405Z,55.77
2018-04-09T17:42:03.828Z,56.10
2018-04-09T17:44:32.092Z,57.40
2018-04-09T17:47:01.175Z,55.47
2018-04-09T17:49:29.516Z,57.73
2018-04-09T17:51:57.835Z,55.93
2018-04-09T17:54:26.940Z,57.43
2018-04-09T17:56:55.409Z,58.63
2018-04-09T17:59:23.733Z,56.30
2018-04-09T18:01:52.068Z,57.37
2018-04-09T18:04:21.137Z,58.37
2018-04-09T18:06:49.475Z,57.10
2018-04-09T18:09:17.820Z,57.87
2018-04-09T18:11:46.118Z,57.63
2018-04-09T18:14:14.485Z,59.03
2018-04-09T18:16:43.530Z,57.47
2018-04-09T18:19:11.831Z,58.43
2018-04-09T18:21:40.125Z,58.47
2018-04-09T18:24:09.178Z,57.70
2018-04-09T18:26:37.475Z,61.30
2018-04-09T18:29:05.765Z,60.30
2018-04-09T18:31:34.827Z,60.37
2018-04-09T18:34:03.129Z,58.10
2018-04-09T18:36:32.169Z,56.43
2018-04-09T18:39:00.479Z,57.67
2018-04-09T18:41:28.768Z,60.13
2018-04-09T18:43:57.857Z,58.17
2018-04-09T18:46:26.145Z,60.23
2018-04-09T18:48:54.468Z,57.13
2018-04-09T18:51:22.741Z,57.43
2018-04-09T18:53:51.043Z,61.27
2018-04-09T18:56:19.329Z,57.67
2018-04-09T18:58:48.435Z,61.53
2018-04-09T19:01:17.531Z,57.20
2018-04-09T19:03:45.794Z,56.70
2018-04-09T19:06:14.188Z,59.80
2018-04-09T19:08:43.229Z,57.47
2018-04-09T19:11:11.527Z,61.20
2018-04-09T19:13:39.818Z,57.27
2018-04-09T19:16:08.143Z,60.60
2018-04-09T19:18:36.419Z,60.67
2018-04-09T19:21:04.724Z,58.97
2018-04-09T19:23:33.047Z,61.10
2018-04-09T19:26:02.146Z,61.67
2018-04-09T19:28:30.429Z,57.50
2018-04-09T19:30:58.745Z,57.73
2018-04-09T19:33:27.113Z,59.67
2018-04-09T19:35:55.532Z,62.63
2018-04-09T19:38:24.690Z,62.17
2018-04-09T19:40:54.342Z,60.47
2018-04-09T19:43:22.804Z,61.37
2018-04-09T19:45:51.597Z,61.70
2018-04-09T19:48:20.617Z,61.70
2018-04-09T19:50:49.272Z,62.23
2018-04-09T19:53:17.710Z,59.87
2018-04-09T19:55:47.432Z,58.47
2018-04-09T19:58:15.894Z,61.23
2018-04-09T20:00:44.439Z,62.93
2018-04-09T20:03:12.881Z,60.70
2018-04-09T20:05:42.013Z,59.00
2018-04-09T20:08:10.476Z,57.87
2018-04-09T20:10:39.682Z,59.57
2018-04-09T20:13:08.072Z,51.73
2018-04-09T20:15:36.495Z,47.73
2018-04-09T20:18:04.908Z,46.60
2018-04-09T20:20:34.342Z,42.60
2018-04-09T20:23:02.763Z,40.90
2018-04-09T20:25:31.184Z,37.60
2018-04-09T20:27:59.806Z,35.03
2018-04-09T20:30:28.274Z,32.77
2018-04-09T20:32:57.485Z,31.80
2018-04-09T20:35:26.681Z,27.67
2018-04-09T20:37:55.108Z,25.53
2018-04-09T20:40:23.499Z,25.00
2018-04-09T20:42:51.952Z,22.27
2018-04-09T20:45:20.486Z,22.47
2018-04-09T20:47:49.708Z,23.10
2018-04-09T20:50:18.911Z,22.47
2018-04-09T20:52:48.027Z,25.57
2018-04-09T20:55:16.519Z,25.20
2018-04-09T20:57:45.558Z,25.10
2018-04-09T21:00:13.857Z,26.13
2018-04-09T21:02:42.138Z,25.20
2018-04-09T21:05:10.418Z,25.93
2018-04-09T21:07:39.448Z,25.70
2018-04-09T21:10:07.750Z,25.60
2018-04-09T21:12:36.023Z,26.27
2018-04-09T21:15:04.350Z,27.53
2018-04-09T21:17:32.704Z,27.33
2018-04-09T21:20:01.003Z,28.43
2018-04-09T21:22:29.243Z,29.03
2018-04-09T21:24:57.530Z,31.07
2018-04-09T21:27:25.802Z,32.53
2018-04-09T21:29:54.083Z,36.07
2018-04-09T21:32:22.348Z,36.17
2018-04-09T21:34:50.629Z,37.00
2018-04-09T21:37:18.920Z,40.43
2018-04-09T21:39:47.166Z,39.43
2018-04-09T21:42:15.534Z,41.70
2018-04-09T21:44:43.804Z,41.57
2018-04-09T21:47:12.075Z,45.70
2018-04-09T21:49:40.338Z,45.23
2018-04-09T21:52:08.627Z,44.53
2018-04-09T21:54:36.910Z,45.87
2018-04-09T21:59:39.714Z,48.03
2018-04-09T22:02:07.995Z,49.30
2018-04-09T22:04:36.272Z,50.23
2018-04-09T22:07:04.542Z,50.50
2018-04-09T22:09:32.825Z,52.90
2018-04-09T22:12:01.137Z,51.47
2018-04-09T22:14:29.442Z,53.10
2018-04-09T22:16:57.712Z,50.73
2018-04-09T22:19:25.984Z,55.30
2018-04-09T22:21:54.239Z,53.93
2018-04-09T22:24:24.438Z,55.83
2018-04-09T22:26:53.480Z,53.70
2018-04-09T22:29:21.790Z,55.00
2018-04-09T22:31:50.027Z,55.70
2018-04-09T22:34:18.303Z,54.97
2018-04-09T22:36:46.561Z,54.77
2018-04-09T22:39:14.946Z,55.73
2018-04-09T22:41:43.202Z,55.83
2018-04-09T22:44:11.468Z,56.63
2018-04-09T22:46:40.513Z,56.50
2018-04-09T22:49:08.776Z,56.50
2018-04-09T22:51:37.059Z,56.63
2018-04-09T22:54:05.320Z,59.40
2018-04-09T22:56:33.613Z,54.30
2018-04-09T22:59:01.879Z,57.00
2018-04-09T23:01:30.147Z,58.27
2018-04-09T23:03:58.415Z,55.30
2018-04-09T23:06:26.698Z,56.17
2018-04-09T23:08:54.968Z,56.40
2018-04-09T23:11:23.244Z,53.87
2018-04-09T23:13:51.506Z,54.00
2018-04-09T23:16:19.891Z,52.47
2018-04-09T23:18:48.206Z,52.80
2018-04-09T23:21:16.493Z,51.30
2018-04-09T23:23:44.742Z,51.60
2018-04-09T23:26:13.029Z,47.93
2018-04-09T23:28:41.389Z,48.63
2018-04-09T23:31:09.865Z,47.03
2018-04-09T23:33:38.137Z,43.23
2018-04-09T23:36:06.433Z,44.37
2018-04-09T23:38:34.718Z,41.73
2018-04-09T23:41:03.016Z,42.83
2018-04-09T23:43:32.067Z,40.33
2018-04-09T23:46:00.354Z,41.07
2018-04-09T23:48:28.667Z,40.07
2018-04-09T23:50:57.817Z,41.30
2018-04-09T23:53:26.128Z,39.63
2018-04-09T23:55:55.273Z,38.97
2018-04-09T23:58:23.571Z,39.90
